Time;durP1;ratioP1;P1;durP2;ratioP2;P2;SDS_P1;SDS_P2;PMS_P1;PMS_P2;Temp;Humidity;BMP_temperature;BMP_pressure;BME280_temperature;BME280_humidity;BME280_pressure;Samples;Min_cycle;Max_cycle;Signal;HPM_P1;HPM_P2
2021/05/11 00:01:40;;;;;;;3.67;1.80;;;384.90;1638.40;;;;;;5014651;28;20108;-79
2021/05/11 00:04:06;;;;;;;8.25;2.25;;;384.90;1638.40;;;;;;5031564;28;20104;-78
2021/05/11 00:06:31;;;;;;;5.82;2.67;;;384.90;1638.40;;;;;;5031906;28;20454;-78
2021/05/11 00:08:57;;;;;;;11.63;2.38;;;409.60;1638.40;;;;;;5013561;28;20393;-79
2021/05/11 00:11:23;;;;;;;3.92;2.20;;;409.70;1638.40;;;;;;5014312;28;20032;-78
2021/05/11 00:13:49;;;;;;;5.72;2.15;;;409.70;1638.40;;;;;;5032001;28;20485;-78
2021/05/11 00:16:15;;;;;;;7.07;2.13;;;409.70;1638.40;;;;;;5031992;28;20488;-78
2021/05/11 00:18:41;;;;;;;2.92;1.83;;;409.60;1638.40;;;;;;5014200;28;20033;-79
2021/05/11 00:21:06;;;;;;;5.18;2.45;;;384.90;1612.80;;;;;;5031762;28;20021;-78
2021/05/11 00:23:32;;;;;;;21.67;3.00;;;384.90;1612.80;;;;;;5013927;28;20037;-77
2021/05/11 00:25:58;;;;;;;5.47;2.35;;;384.90;1612.80;;;;;;5031826;28;20014;-78
2021/05/11 00:28:24;;;;;;;7.00;2.50;;;384.90;1612.80;;;;;;5031800;28;20017;-78
2021/05/11 00:30:50;;;;;;;6.07;2.10;;;384.90;1612.80;;;;;;5031989;28;20033;-78
2021/05/11 00:33:16;;;;;;;13.10;2.42;;;384.90;1612.80;;;;;;5031565;28;20013;-78
2021/05/11 00:35:42;;;;;;;9.57;2.47;;;384.90;1612.80;;;;;;5031568;28;20137;-77
2021/05/11 00:38:08;;;;;;;7.50;2.50;;;384.70;1612.80;;;;;;5031879;28;20493;-78
2021/05/11 00:40:34;;;;;;;6.35;2.28;;;384.60;1638.40;;;;;;5013716;28;20069;-77
2021/05/11 00:42:59;;;;;;;4.45;2.05;;;384.60;1638.40;;;;;;5031733;28;20029;-78
2021/05/11 00:45:26;;;;;;;9.93;3.08;;;384.50;1638.40;;;;;;5031626;28;20036;-78
2021/05/11 00:47:51;;;;;;;11.05;3.28;;;384.60;1638.40;;;;;;5014001;28;20033;-78
2021/05/11 00:50:17;;;;;;;8.43;2.67;;;384.60;1612.80;;;;;;5013505;28;20042;-78
2021/05/11 00:52:43;;;;;;;8.45;3.10;;;384.70;1612.80;;;;;;5014082;28;20028;-77
2021/05/11 00:55:10;;;;;;;8.68;2.75;;;384.70;1638.40;;;;;;5031388;28;20061;-78
2021/05/11 00:57:36;;;;;;;5.90;2.78;;;384.60;1612.80;;;;;;5014009;28;20026;-79
2021/05/11 01:00:06;;;;;;;7.95;3.05;;;384.60;1612.80;;;;;;5031338;28;20569;-78
2021/05/11 01:02:31;;;;;;;4.72;2.70;;;384.60;1638.40;;;;;;5031444;28;20033;-78
2021/05/11 01:04:57;;;;;;;7.28;2.95;;;384.60;1638.40;;;;;;5014010;28;20028;-79
2021/05/11 01:07:23;;;;;;;4.82;2.70;;;384.50;1638.40;;;;;;5031231;28;20072;-79
2021/05/11 01:09:49;;;;;;;4.25;2.10;;;384.50;1638.40;;;;;;5013987;28;20087;-79
2021/05/11 01:12:15;;;;;;;7.57;2.70;;;384.50;1638.40;;;;;;5031274;28;20022;-80
2021/05/11 01:14:41;;;;;;;4.57;2.38;;;384.60;1664.00;;;;;;5013565;28;20495;-80
2021/05/11 01:17:14;;;;;;;4.93;2.50;;;384.60;1638.40;;;;;;5031480;28;20025;-79
2021/05/11 01:19:51;;;;;;;6.20;2.83;;;384.50;1664.00;;;;;;5016392;28;20031;-77
2021/05/11 01:28:09;;;;;;;11.13;2.92;;;384.40;1689.60;;;;;;4935294;29;20059;-79
2021/05/11 01:49:22;;;;;;;4.40;2.58;;;359.00;1715.20;;;;;;4935381;29;20424;-80
2021/05/11 02:11:02;;;;;;;4.55;2.22;;;359.20;1612.80;;;;;;5034340;28;20132;-79
2021/05/11 02:18:03;;;;;;;5.30;1.92;;;359.30;1612.80;;;;;;5034299;28;20039;-79
2021/05/11 02:24:49;;;;;;;5.40;2.47;;;359.20;1612.80;;;;;;4953586;29;20091;-78
2021/05/11 02:27:15;;;;;;;5.78;2.00;;;359.20;1612.80;;;;;;4953662;29;20076;-80
2021/05/11 02:29:41;;;;;;;3.63;1.90;;;359.30;1587.20;;;;;;4953033;28;20495;-79
2021/05/11 02:32:07;;;;;;;5.70;2.05;;;384.40;1587.20;;;;;;4952898;29;20555;-80
2021/05/11 02:34:32;;;;;;;6.63;2.17;;;384.10;1587.20;;;;;;4952727;29;20043;-80
2021/05/11 02:36:58;;;;;;;8.50;2.42;;;384.10;1587.20;;;;;;4952616;29;20455;-79
2021/05/11 02:39:24;;;;;;;3.40;2.08;;;384.20;1612.80;;;;;;4937020;29;20062;-79
2021/05/11 02:41:49;;;;;;;3.90;2.08;;;384.20;1587.20;;;;;;4952818;29;20035;-80
2021/05/11 02:44:18;;;;;;;7.05;2.15;;;384.10;1587.20;;;;;;4952978;29;20081;-80
2021/05/11 02:46:44;;;;;;;5.28;2.10;;;384.00;1587.20;;;;;;4952648;28;20027;-79
2021/05/11 02:49:10;;;;;;;4.70;2.30;;;359.20;1587.20;;;;;;4952990;29;20027;-79
2021/05/11 02:51:36;;;;;;;4.03;1.90;;;359.20;1587.20;;;;;;4952710;29;20031;-80
2021/05/11 02:54:02;;;;;;;6.03;1.90;;;359.20;1612.80;;;;;;4952606;29;20039;-79
2021/05/11 02:56:27;;;;;;;11.35;2.70;;;359.30;1587.20;;;;;;4952633;29;20038;-79
2021/05/11 02:58:53;;;;;;;4.82;2.38;;;359.30;1587.20;;;;;;4952424;29;20035;-78
2021/05/11 03:01:19;;;;;;;8.30;2.88;;;384.00;1612.80;;;;;;5008067;28;20052;-80
2021/05/11 03:03:45;;;;;;;4.55;2.20;;;359.20;1587.20;;;;;;5014897;28;20029;-79
2021/05/11 03:06:11;;;;;;;7.18;2.20;;;359.10;1612.80;;;;;;5032826;28;20045;-79
2021/05/11 03:08:41;;;;;;;8.95;2.55;;;359.10;1612.80;;;;;;5014807;28;20199;-79
2021/05/11 03:11:07;;;;;;;3.40;1.92;;;359.10;1612.80;;;;;;5030057;28;20052;-79
2021/05/11 03:13:33;;;;;;;11.82;2.88;;;359.00;1612.80;;;;;;5014777;28;20029;-80
2021/05/11 03:15:58;;;;;;;3.58;2.10;;;358.90;1612.80;;;;;;5014910;28;20468;-79
2021/05/11 03:18:24;;;;;;;7.40;2.45;;;359.00;1612.80;;;;;;5014653;28;20483;-79
2021/05/11 03:20:50;;;;;;;4.32;2.33;;;359.00;1612.80;;;;;;5014775;28;20025;-80
2021/05/11 03:23:16;;;;;;;7.30;2.00;;;358.80;1638.40;;;;;;5014687;28;20020;-79
2021/05/11 03:25:41;;;;;;;7.78;2.53;;;358.80;1638.40;;;;;;5014684;28;20036;-79
2021/05/11 03:28:07;;;;;;;6.63;2.30;;;358.80;1664.00;;;;;;5031983;28;20059;-79
2021/05/11 03:30:33;;;;;;;5.30;2.45;;;358.90;1638.40;;;;;;5014388;28;20672;-79
2021/05/11 03:32:58;;;;;;;4.72;2.00;;;358.90;1638.40;;;;;;5032547;28;20028;-79
2021/05/11 03:35:24;;;;;;;5.53;2.33;;;358.80;1664.00;;;;;;5010825;28;20104;-79
2021/05/11 03:37:50;;;;;;;7.13;2.97;;;358.80;1689.60;;;;;;5012381;28;20465;-79
2021/05/11 03:40:15;;;;;;;5.03;2.33;;;358.80;1689.60;;;;;;5010643;28;20040;-79
2021/05/11 03:42:51;;;;;;;9.02;2.20;;;358.90;1664.00;;;;;;5011575;28;20037;-79
2021/05/11 03:45:17;;;;;;;4.72;2.22;;;358.90;1664.00;;;;;;5009297;28;20018;-79
2021/05/11 03:47:47;;;;;;;14.07;2.63;;;358.90;1689.60;;;;;;5012385;28;20478;-78
2021/05/11 03:50:14;;;;;;;5.70;2.28;;;359.00;1664.00;;;;;;5012147;28;20065;-79
2021/05/11 03:52:40;;;;;;;5.65;1.80;;;358.90;1689.60;;;;;;5012287;28;20486;-80
2021/05/11 03:55:07;;;;;;;5.78;2.30;;;358.90;1689.60;;;;;;5010557;28;20046;-79
2021/05/11 03:57:33;;;;;;;5.55;2.28;;;358.90;1689.60;;;;;;5010752;28;20033;-79
2021/05/11 03:59:58;;;;;;;7.40;2.42;;;358.90;1689.60;;;;;;5010873;28;20026;-79
2021/05/11 04:02:24;;;;;;;9.25;2.40;;;358.90;1689.60;;;;;;5009442;28;20068;-79
2021/05/11 04:04:50;;;;;;;9.65;2.53;;;359.00;1689.60;;;;;;5010853;28;20025;-79
2021/05/11 04:07:16;;;;;;;9.05;2.45;;;359.10;1664.00;;;;;;5010630;28;20030;-79
2021/05/11 04:09:55;;;;;;;3.95;1.90;;;359.20;1664.00;;;;;;5010723;28;20042;-79
2021/05/11 04:17:46;;;;;;;3.00;2.20;;;384.20;1612.80;;;;;;5011624;28;20068;-79
2021/05/11 04:20:12;;;;;;;4.88;2.03;;;384.40;1561.60;;;;;;5012201;28;20030;-80
2021/05/11 04:22:38;;;;;;;5.43;2.63;;;384.60;1587.20;;;;;;5010709;28;20033;-80
2021/05/11 04:25:05;;;;;;;7.55;2.38;;;384.60;1561.60;;;;;;5010729;28;20018;-80
2021/05/11 04:27:31;;;;;;;5.43;2.22;;;384.90;1561.60;;;;;;5007782;28;20429;-79
2021/05/11 04:29:59;;;;;;;3.05;1.98;;;384.90;1536.00;;;;;;5010594;28;20038;-79
2021/05/11 04:32:24;;;;;;;6.50;2.25;;;409.60;1561.60;;;;;;5011776;28;20477;-80
2021/05/11 04:34:50;;;;;;;8.85;2.42;;;409.80;1536.00;;;;;;5007738;28;20053;-80
2021/05/11 04:37:16;;;;;;;7.53;1.70;;;409.90;1510.40;;;;;;5010265;28;20148;-80
2021/05/11 04:39:41;;;;;;;5.35;1.80;;;409.90;1510.40;;;;;;5012089;28;20473;-80
2021/05/11 04:42:07;;;;;;;2.95;1.80;;;410.10;1536.00;;;;;;5010227;28;20018;-79
2021/05/11 04:44:33;;;;;;;8.18;2.78;;;410.20;1510.40;;;;;;4993998;28;20099;-79
2021/05/11 04:49:25;;;;;;;3.47;1.55;;;410.40;1459.20;;;;;;5011526;28;20082;-80
2021/05/11 04:51:52;;;;;;;9.10;2.38;;;410.50;1459.20;;;;;;5009079;28;20080;-78
2021/05/11 04:54:18;;;;;;;9.48;1.90;;;435.20;1433.60;;;;;;5013289;28;20029;-78
2021/05/11 04:56:46;;;;;;;16.40;2.80;;;435.30;1433.60;;;;;;5015470;28;20374;-78
2021/05/11 04:59:12;;;;;;;6.53;2.17;;;435.40;1433.60;;;;;;5011333;28;20029;-77
2021/05/11 05:01:38;;;;;;;7.68;2.00;;;435.50;1433.60;;;;;;5015751;28;20049;-79
2021/05/11 05:04:04;;;;;;;3.17;1.80;;;435.60;1433.60;;;;;;5013899;28;20035;-79
2021/05/11 05:06:29;;;;;;;4.53;2.28;;;435.80;1382.40;;;;;;5013097;28;20029;-79
2021/05/11 05:08:56;;;;;;;4.53;1.90;;;435.90;1382.40;;;;;;5015012;28;20030;-78
2021/05/11 05:11:21;;;;;;;4.53;1.83;;;435.90;1356.80;;;;;;5013663;28;20116;-77
2021/05/11 05:13:47;;;;;;;8.55;1.98;;;436.10;1305.60;;;;;;5015009;28;20102;-77
2021/05/11 05:16:13;;;;;;;3.17;1.70;;;460.80;1356.80;;;;;;5014968;28;20565;-76
2021/05/11 05:18:38;;;;;;;3.65;1.75;;;460.90;1305.60;;;;;;5015043;28;20022;-78
2021/05/11 05:21:08;;;;;;;5.38;1.98;;;461.00;1331.20;;;;;;5013488;28;20014;-78
2021/05/11 05:23:44;;;;;;;6.18;1.70;;;461.10;1331.20;;;;;;5012472;28;20867;-80
2021/05/11 05:26:11;;;;;;;3.75;2.00;;;461.30;1305.60;;;;;;5014711;28;20085;-79
2021/05/11 05:28:42;;;;;;;5.85;2.00;;;461.40;1305.60;;;;;;5014145;28;20026;-78
2021/05/11 05:31:08;;;;;;;5.63;2.05;;;461.40;1305.60;;;;;;5014384;28;20021;-79
2021/05/11 05:33:36;;;;;;;8.98;2.00;;;486.50;1305.60;;;;;;5012777;28;20057;-79
2021/05/11 05:36:03;;;;;;;4.75;1.70;;;461.70;1254.40;;;;;;5023337;28;20065;-80
2021/05/11 05:38:29;;;;;;;3.50;1.85;;;461.70;1228.80;;;;;;5016325;28;20026;-78
2021/05/11 05:41:04;;;;;;;7.20;2.20;;;486.40;1254.40;;;;;;5034113;28;20022;-79
2021/05/11 05:43:30;;;;;;;3.45;1.95;;;486.50;1254.40;;;;;;5016049;28;20477;-78
2021/05/11 05:45:56;;;;;;;6.03;2.10;;;486.60;1203.20;;;;;;5016174;28;20032;-78
2021/05/11 05:48:22;;;;;;;8.40;2.33;;;486.70;1228.80;;;;;;5033947;28;20116;-78
2021/05/11 05:50:52;;;;;;;4.15;1.60;;;486.80;1228.80;;;;;;5015916;28;20163;-81
2021/05/11 05:53:31;;;;;;;4.68;1.90;;;486.80;1177.60;;;;;;5013994;28;20017;-78
2021/05/11 05:55:57;;;;;;;4.30;2.05;;;;;;;;;;5015611;28;20017;-79
2021/05/11 05:58:23;;;;;;;9.10;3.45;;;487.00;1152.00;;;;;;5016209;28;20543;-77
2021/05/11 06:00:53;;;;;;;4.78;2.17;;;487.00;1126.40;;;;;;5015711;28;20053;-81
2021/05/11 06:03:35;;;;;;;5.38;1.85;;;487.10;1152.00;;;;;;5013907;28;20107;-77
2021/05/11 06:06:03;;;;;;;4.53;1.60;;;487.10;1126.40;;;;;;5032781;28;20083;-78
2021/05/11 06:08:29;;;;;;;6.82;2.45;;;487.30;1152.00;;;;;;5015564;28;20038;-78
2021/05/11 06:11:43;;;;;;;8.07;2.45;;;512.00;1126.40;;;;;;5033386;28;20018;-78
2021/05/11 06:19:03;;;;;;;5.07;2.58;;;512.40;1126.40;;;;;;5033366;28;20497;-78
2021/05/11 06:21:29;;;;;;;4.68;1.45;;;512.50;1100.80;;;;;;5012167;28;20026;-78
2021/05/11 06:23:55;;;;;;;7.90;2.63;;;512.60;1100.80;;;;;;5012926;28;20125;-77
2021/05/11 06:26:21;;;;;;;3.47;1.88;;;512.80;1075.20;;;;;;5015700;28;20028;-78
2021/05/11 06:28:46;;;;;;;5.20;2.08;;;512.90;1049.60;;;;;;5015161;28;20485;-78
2021/05/11 06:31:12;;;;;;;4.03;2.42;;;512.90;1049.60;;;;;;5013579;28;20048;-78
2021/05/11 06:33:38;;;;;;;5.90;2.72;;;537.60;1075.20;;;;;;5031676;28;20366;-78
2021/05/11 06:36:04;;;;;;;5.00;2.20;;;537.70;1075.20;;;;;;5033001;28;20448;-78
2021/05/11 06:38:30;;;;;;;5.45;2.00;;;537.80;1100.80;;;;;;5012197;28;20037;-78
2021/05/11 06:40:57;;;;;;;6.43;2.13;;;538.00;1075.20;;;;;;5015300;28;20029;-77
2021/05/11 06:43:26;;;;;;;4.43;2.10;;;538.00;1049.60;;;;;;5032609;28;20026;-79
2021/05/11 06:48:26;;;;;;;6.57;2.22;;;538.00;998.40;;;;;;5030685;28;20191;-77
2021/05/11 06:53:43;;;;;;;6.15;1.85;;;538.30;998.40;;;;;;5033152;28;20028;-77
2021/05/11 06:56:10;;;;;;;;;;;538.40;1024.00;;;;;;5014129;28;20091;-77
2021/05/11 06:58:37;;;;;;;4.05;2.00;;;538.50;998.40;;;;;;5032324;28;19996;-76
2021/05/11 07:01:03;;;;;;;6.07;2.25;;;538.50;972.80;;;;;;5032627;28;20025;-78
2021/05/11 07:03:29;;;;;;;5.93;2.25;;;563.30;998.40;;;;;;5032632;28;20053;-79
2021/05/11 07:05:55;;;;;;;12.57;2.38;;;563.30;998.40;;;;;;5032302;28;20516;-78
2021/05/11 07:09:01;;;;;;;5.40;2.05;;;563.40;1024.00;;;;;;5032033;28;20021;-77
2021/05/11 07:13:44;;;;;;;5.22;1.75;;;563.70;998.40;;;;;;5032645;28;20556;-78
2021/05/11 07:16:10;;;;;;;4.10;1.90;;;563.80;972.80;;;;;;5014542;28;20104;-78
2021/05/11 07:18:36;;;;;;;9.85;1.90;;;563.80;972.80;;;;;;5013448;28;20100;-79
2021/05/11 07:21:02;;;;;;;4.82;2.10;;;564.00;972.80;;;;;;5012870;28;20386;-79
2021/05/11 07:23:28;;;;;;;8.10;2.25;;;564.10;972.80;;;;;;5031781;28;20032;-78
2021/05/11 07:26:04;;;;;;;5.13;2.28;;;588.80;972.80;;;;;;5031542;28;20148;-79
2021/05/11 07:28:38;;;;;;;3.53;1.77;;;588.80;972.80;;;;;;5012808;28;20055;-78
2021/05/11 07:31:06;;;;;;;3.50;2.03;;;588.80;947.20;;;;;;5014317;28;20025;-78
2021/05/11 07:36:06;;;;;;;5.35;1.75;;;589.10;972.80;;;;;;5030012;28;20539;-79
2021/05/11 07:38:33;;;;;;;8.40;2.20;;;589.20;947.20;;;;;;5010697;28;20047;-77
2021/05/11 07:40:59;;;;;;;9.15;2.22;;;589.30;921.60;;;;;;5031602;28;20049;-79
2021/05/11 07:43:26;;;;;;;8.23;2.60;;;589.30;921.60;;;;;;5031831;28;20049;-78
2021/05/11 08:15:53;;;;;;;12.35;2.92;;;614.80;896.00;;;;;;4951462;29;20041;-79
2021/05/11 08:28:26;;;;;;;6.80;2.40;;;615.10;870.40;;;;;;4951431;28;20023;-75
2021/05/11 08:30:52;;;;;;;11.52;3.88;;;615.30;896.00;;;;;;4955129;29;20391;-76
2021/05/11 08:33:18;;;;;;;8.23;2.20;;;640.00;870.40;;;;;;4994723;28;20038;-76
2021/05/11 08:35:44;;;;;;;7.35;2.40;;;640.10;921.60;;;;;;5035030;28;20060;-74
2021/05/11 08:38:10;;;;;;;8.27;2.30;;;640.10;870.40;;;;;;5035207;28;20418;-78
2021/05/11 08:40:36;;;;;;;10.25;2.90;;;640.40;896.00;;;;;;5035554;28;20432;-77
2021/05/11 08:43:08;;;;;;;5.93;2.28;;;640.40;844.80;;;;;;5027010;28;20017;-76
2021/05/11 08:45:34;;;;;;;7.63;1.90;;;640.20;844.80;;;;;;5033260;28;20488;-77
2021/05/11 08:48:00;;;;;;;6.60;2.65;;;640.40;844.80;;;;;;5034535;28;20519;-77
2021/05/11 08:50:36;;;;;;;8.20;2.35;;;640.40;844.80;;;;;;5035507;28;20037;-77
2021/05/11 09:07:28;;;;;;;15.02;3.28;;;640.90;844.80;;;;;;5035045;28;20087;-76
2021/05/11 09:26:35;;;;;;;18.55;3.20;;;666.30;819.20;;;;;;5033147;28;20079;-77
2021/05/11 09:29:07;;;;;;;15.63;3.45;;;691.20;793.60;;;;;;5034278;28;20029;-77
2021/05/11 09:31:53;;;;;;;13.98;2.70;;;691.30;819.20;;;;;;5034393;28;20018;-77
2021/05/11 09:34:31;;;;;;;12.30;2.90;;;691.20;844.80;;;;;;5034450;28;20021;-77
2021/05/11 10:31:17;;;;;;;;;;;717.20;793.60;;;;;;5031367;28;20033;-80
2021/05/11 10:49:25;;;;;;;9.30;2.75;;;742.50;819.20;;;;;;5030168;28;20091;-78
2021/05/11 10:54:41;;;;;;;5.28;2.67;;;742.60;793.60;;;;;;5030752;28;20030;-81
2021/05/11 11:00:42;;;;;;;7.78;3.22;;;742.60;793.60;;;;;;5029674;28;20028;-79
2021/05/11 11:03:16;;;;;;;10.05;2.65;;;742.60;819.20;;;;;;5030895;28;20029;-79
2021/05/11 11:05:45;;;;;;;4.00;2.67;;;717.70;793.60;;;;;;5032637;28;20071;-79
2021/05/11 11:08:33;;;;;;;10.57;2.70;;;717.70;793.60;;;;;;5032518;28;20033;-79
2021/05/11 11:11:12;;;;;;;11.13;2.97;;;717.70;793.60;;;;;;5032052;28;20528;-78
2021/05/11 11:13:47;;;;;;;8.35;2.97;;;742.50;819.20;;;;;;5032359;28;20028;-79
2021/05/11 11:16:14;;;;;;;12.57;3.28;;;742.80;793.60;;;;;;5032317;28;20021;-78
2021/05/11 11:18:40;;;;;;;8.68;2.85;;;742.40;819.20;;;;;;5032301;28;20048;-77
2021/05/11 11:23:55;;;;;;;5.72;2.60;;;742.80;793.60;;;;;;5032190;28;20045;-79
2021/05/11 11:26:28;;;;;;;3.88;2.35;;;742.90;793.60;;;;;;5014312;28;20018;-82
2021/05/11 11:29:05;;;;;;;7.38;2.88;;;742.60;768.00;;;;;;5032189;28;20033;-82
2021/05/11 11:31:33;;;;;;;10.52;3.03;;;742.50;819.20;;;;;;5013533;28;20022;-78
2021/05/11 11:34:22;;;;;;;11.55;3.75;;;742.60;819.20;;;;;;5004024;28;20037;-78
2021/05/11 11:36:58;;;;;;;9.88;2.38;;;742.90;819.20;;;;;;5014322;28;20033;-78
2021/05/11 11:39:25;;;;;;;;;;;742.90;819.20;;;;;;5032338;28;20076;-77
2021/05/11 11:41:52;;;;;;;5.80;2.35;;;743.00;793.60;;;;;;5032010;28;19905;-77
2021/05/11 11:44:25;;;;;;;6.88;2.58;;;743.00;819.20;;;;;;5014343;28;20021;-77
2021/05/11 11:47:06;;;;;;;4.10;2.22;;;742.90;793.60;;;;;;5017965;28;20041;-77
2021/05/11 11:49:38;;;;;;;5.07;2.30;;;743.00;768.00;;;;;;5014548;28;20100;-77
2021/05/11 11:52:08;;;;;;;9.88;2.75;;;743.00;793.60;;;;;;5031824;28;20037;-77
2021/05/11 11:54:48;;;;;;;5.68;2.75;;;743.20;793.60;;;;;;5031938;28;20030;-77
2021/05/11 12:00:16;;;;;;;6.32;3.00;;;743.10;819.20;;;;;;5032198;28;20032;-77
2021/05/11 12:03:11;;;;;;;12.45;2.70;;;743.00;768.00;;;;;;5031563;28;20014;-77
2021/05/11 12:05:43;;;;;;;11.93;2.50;;;743.10;768.00;;;;;;5028987;28;20026;-78
2021/05/11 12:10:45;;;;;;;5.95;2.70;;;743.10;819.20;;;;;;5031651;28;20033;-77
2021/05/11 12:13:11;;;;;;;7.43;2.83;;;743.00;793.60;;;;;;5031841;28;20527;-76
2021/05/11 12:15:37;;;;;;;12.63;3.97;;;743.10;793.60;;;;;;5023400;28;20024;-76
2021/05/11 12:18:42;;;;;;;11.07;2.83;;;743.20;819.20;;;;;;5031411;28;20087;-76
2021/05/11 12:21:01;;;;;;;12.20;3.95;;;768.10;819.20;;;;;;5024868;28;20378;-76
2021/05/11 12:23:27;;;;;;;7.63;2.88;;;743.10;793.60;;;;;;5031438;28;20104;-76
2021/05/11 12:25:57;;;;;;;8.40;2.78;;;743.20;768.00;;;;;;5031814;28;20121;-76
2021/05/11 12:28:40;;;;;;;9.32;2.50;;;768.10;793.60;;;;;;5031522;28;20025;-76
2021/05/11 12:31:08;;;;;;;6.82;2.83;;;768.30;819.20;;;;;;5026757;28;20021;-76
2021/05/11 12:33:42;;;;;;;6.40;2.85;;;743.30;793.60;;;;;;5030206;28;20091;-76
2021/05/11 12:36:22;;;;;;;8.50;3.22;;;768.20;793.60;;;;;;5029735;28;20041;-76
2021/05/11 12:39:12;;;;;;;11.75;2.70;;;768.40;793.60;;;;;;5028369;28;20033;-75
2021/05/11 12:41:38;;;;;;;15.90;3.28;;;768.10;768.00;;;;;;5030910;28;20021;-76
2021/05/11 12:44:04;;;;;;;8.07;2.80;;;768.30;793.60;;;;;;5031092;28;20025;-75
2021/05/11 12:46:32;;;;;;;11.77;2.90;;;768.40;768.00;;;;;;5031119;28;20029;-76
2021/05/11 12:48:59;;;;;;;10.35;2.92;;;768.40;793.60;;;;;;5017486;28;20078;-76
2021/05/11 12:51:33;;;;;;;6.70;2.33;;;768.40;768.00;;;;;;5031305;28;20029;-76
2021/05/11 12:54:02;;;;;;;9.18;2.40;;;768.40;768.00;;;;;;5031147;28;20488;-76
2021/05/11 12:56:31;;;;;;;13.05;2.88;;;768.40;742.40;;;;;;5031192;28;20473;-76
2021/05/11 12:59:15;;;;;;;5.35;2.65;;;768.10;768.00;;;;;;5031193;28;20021;-76
2021/05/11 13:13:36;;;;;;;13.95;2.78;;;768.50;793.60;;;;;;5030652;28;20044;-76
2021/05/11 13:22:53;;;;;;;7.72;2.83;;;768.20;768.00;;;;;;5034151;28;20052;-77
2021/05/11 13:25:27;;;;;;;9.25;2.42;;;768.40;793.60;;;;;;5016918;28;20389;-77
2021/05/11 13:28:05;;;;;;;7.95;2.90;;;768.40;768.00;;;;;;5033981;28;20496;-76
2021/05/11 13:35:43;;;;;;;8.23;2.60;;;768.30;768.00;;;;;;5033795;28;20037;-77
2021/05/11 13:38:09;;;;;;;9.48;3.65;;;768.10;742.40;;;;;;5034009;28;20092;-77
2021/05/11 13:40:35;;;;;;;6.45;2.83;;;768.20;742.40;;;;;;5033811;28;20044;-77
2021/05/11 13:43:00;;;;;;;6.32;2.65;;;768.10;793.60;;;;;;5034092;28;20040;-75
2021/05/11 13:45:27;;;;;;;8.50;2.33;;;768.40;768.00;;;;;;5033747;28;20018;-76
2021/05/11 13:48:02;;;;;;;8.05;2.92;;;768.20;768.00;;;;;;5033571;28;20088;-76
2021/05/11 13:53:13;;;;;;;10.43;3.03;;;768.00;768.00;;;;;;5033875;28;20043;-77
2021/05/11 13:55:57;;;;;;;9.07;3.15;;;743.30;793.60;;;;;;5033784;28;20097;-76
2021/05/11 14:03:52;;;;;;;7.45;2.85;;;743.10;793.60;;;;;;5033916;28;20452;-77
2021/05/11 14:06:17;;;;;;;7.57;2.47;;;743.20;793.60;;;;;;5014401;28;20098;-76
2021/05/11 14:08:43;;;;;;;9.18;2.80;;;743.10;819.20;;;;;;5033846;28;20030;-76
2021/05/11 14:11:09;;;;;;;6.03;3.10;;;743.10;793.60;;;;;;5033703;28;20108;-76
2021/05/11 14:13:35;;;;;;;7.85;3.17;;;743.00;793.60;;;;;;5033637;28;20388;-78
2021/05/11 14:16:01;;;;;;;8.88;3.33;;;743.00;819.20;;;;;;5033623;28;20032;-77
2021/05/11 14:18:26;;;;;;;13.27;3.85;;;742.80;793.60;;;;;;5033523;28;20081;-78
2021/05/11 14:20:52;;;;;;;6.10;3.13;;;743.00;819.20;;;;;;5033693;28;20406;-78
2021/05/11 14:23:18;;;;;;;8.20;2.55;;;742.80;819.20;;;;;;5033512;28;20017;-77
2021/05/11 14:25:43;;;;;;;12.65;2.88;;;743.00;819.20;;;;;;5033240;28;20108;-77
2021/05/11 14:28:09;;;;;;;5.65;2.80;;;742.80;793.60;;;;;;5033033;28;20030;-77
2021/05/11 14:30:35;;;;;;;7.13;2.40;;;742.80;819.20;;;;;;5033333;28;20079;-77
2021/05/11 14:33:02;;;;;;;8.20;2.47;;;742.70;793.60;;;;;;5033332;28;20385;-77
2021/05/11 14:35:27;;;;;;;9.60;2.90;;;742.60;819.20;;;;;;5014874;28;20512;-76
2021/05/11 14:37:53;;;;;;;10.00;3.17;;;742.40;819.20;;;;;;5033394;28;20025;-76
2021/05/11 14:40:19;;;;;;;10.25;3.25;;;742.60;819.20;;;;;;5033064;28;20013;-76
2021/05/11 14:42:48;;;;;;;8.05;3.17;;;742.70;819.20;;;;;;5033343;28;20079;-76
2021/05/11 14:45:15;;;;;;;6.05;2.58;;;742.60;793.60;;;;;;5032398;28;20022;-77
2021/05/11 14:47:45;;;;;;;6.82;2.72;;;742.50;819.20;;;;;;5032514;28;20025;-77
2021/05/11 14:50:16;;;;;;;8.68;2.97;;;742.40;819.20;;;;;;5032715;28;20115;-77
2021/05/11 14:52:42;;;;;;;6.38;3.17;;;742.40;819.20;;;;;;5013859;28;20022;-77
2021/05/11 14:55:09;;;;;;;7.50;3.00;;;742.40;819.20;;;;;;5005802;28;20032;-77
2021/05/11 14:57:35;;;;;;;11.93;2.75;;;742.40;793.60;;;;;;5014843;28;20033;-76
2021/05/11 15:00:01;;;;;;;5.53;2.80;;;742.50;819.20;;;;;;5032923;28;20031;-76
2021/05/11 15:02:27;;;;;;;7.70;2.60;;;742.40;819.20;;;;;;5032602;28;20021;-77
2021/05/11 15:04:53;;;;;;;5.78;3.22;;;742.50;819.20;;;;;;5015081;28;20033;-77
2021/05/11 15:07:19;;;;;;;11.52;2.88;;;742.40;819.20;;;;;;5032382;28;20021;-76
2021/05/11 15:09:45;;;;;;;9.00;2.88;;;717.70;793.60;;;;;;5032705;28;20037;-76
2021/05/11 15:12:14;;;;;;;7.65;2.60;;;717.70;768.00;;;;;;5032625;28;20362;-76
2021/05/11 15:14:40;;;;;;;8.05;3.25;;;717.70;768.00;;;;;;5032504;28;20033;-76
2021/05/11 15:19:51;;;;;;;8.95;3.65;;;717.40;768.00;;;;;;5030579;28;20036;-76
2021/05/11 15:22:17;;;;;;;6.30;2.88;;;717.50;819.20;;;;;;5032119;28;20018;-76
2021/05/11 15:24:43;;;;;;;12.40;3.17;;;717.60;793.60;;;;;;5031848;28;20022;-75
2021/05/11 15:27:09;;;;;;;9.90;3.10;;;717.60;793.60;;;;;;5031903;28;20020;-76
2021/05/11 15:29:37;;;;;;;7.63;2.85;;;717.60;819.20;;;;;;5029776;28;20120;-76
2021/05/11 15:32:23;;;;;;;11.68;2.78;;;717.40;819.20;;;;;;5027111;28;20540;-76
2021/05/11 15:34:48;;;;;;;4.82;2.42;;;717.40;819.20;;;;;;5031845;28;20481;-76
2021/05/11 15:37:16;;;;;;;9.20;2.83;;;717.30;793.60;;;;;;5031613;28;20116;-76
2021/05/11 15:39:44;;;;;;;10.15;3.70;;;717.60;793.60;;;;;;5031898;28;20021;-76
2021/05/11 15:42:10;;;;;;;5.90;3.00;;;717.20;819.20;;;;;;5031949;28;20017;-75
2021/05/11 15:44:35;;;;;;;8.20;2.42;;;717.20;844.80;;;;;;5031480;28;20091;-76
2021/05/11 15:47:01;;;;;;;6.93;2.90;;;717.10;819.20;;;;;;5031599;28;20018;-74
2021/05/11 15:49:27;;;;;;;9.55;2.85;;;717.20;870.40;;;;;;5031517;28;20521;-76
2021/05/11 15:51:52;;;;;;;6.65;2.80;;;717.10;819.20;;;;;;5031579;28;20017;-75
2021/05/11 15:54:18;;;;;;;4.80;2.88;;;717.00;793.60;;;;;;5031366;28;20488;-75
2021/05/11 15:56:44;;;;;;;4.22;2.53;;;717.00;819.20;;;;;;5031671;28;20099;-75
2021/05/11 15:59:10;;;;;;;9.10;2.65;;;716.80;819.20;;;;;;5031317;28;20167;-76
2021/05/11 16:01:36;;;;;;;8.23;3.38;;;716.80;819.20;;;;;;5031832;28;20513;-74
2021/05/11 16:04:02;;;;;;;10.43;3.22;;;692.10;819.20;;;;;;5031393;28;20028;-76
2021/05/11 16:06:27;;;;;;;9.32;3.33;;;692.10;819.20;;;;;;5014300;28;20409;-77
2021/05/11 16:08:53;;;;;;;10.45;3.35;;;691.90;819.20;;;;;;5031768;28;20033;-76
2021/05/11 16:11:19;;;;;;;7.38;3.30;;;691.90;819.20;;;;;;5013470;28;20485;-76
2021/05/11 16:13:44;;;;;;;4.18;2.38;;;691.80;819.20;;;;;;5031963;28;20024;-75
2021/05/11 16:16:10;;;;;;;6.53;2.72;;;691.70;819.20;;;;;;5031339;28;20517;-77
2021/05/11 16:18:39;;;;;;;7.55;3.35;;;691.70;819.20;;;;;;5031637;28;20025;-77
2021/05/11 16:21:05;;;;;;;5.93;2.60;;;691.60;819.20;;;;;;5030943;28;20026;-75
2021/05/11 16:23:30;;;;;;;8.50;2.83;;;691.50;844.80;;;;;;5031182;28;20018;-75
2021/05/11 16:25:56;;;;;;;8.10;2.60;;;691.40;844.80;;;;;;5012427;28;20037;-75
2021/05/11 16:28:22;;;;;;;4.78;2.42;;;691.30;844.80;;;;;;5028650;28;20076;-76
2021/05/11 16:30:48;;;;;;;10.07;2.95;;;691.30;844.80;;;;;;5012900;28;20104;-75
2021/05/11 16:33:14;;;;;;;4.82;2.45;;;691.20;844.80;;;;;;5030911;28;20025;-76
2021/05/11 16:35:42;;;;;;;10.30;3.05;;;666.50;870.40;;;;;;5030988;28;20437;-76
2021/05/11 16:38:07;;;;;;;6.20;3.00;;;666.50;844.80;;;;;;5030863;28;20025;-76
2021/05/11 16:40:34;;;;;;;8.77;2.80;;;666.40;870.40;;;;;;5031179;28;20105;-76
2021/05/11 16:43:00;;;;;;;5.43;2.90;;;666.30;870.40;;;;;;5030941;28;20028;-76
2021/05/11 16:45:26;;;;;;;12.15;3.30;;;666.30;870.40;;;;;;5013431;28;20091;-76
2021/05/11 16:47:55;;;;;;;7.32;2.80;;;666.20;896.00;;;;;;5029856;28;20094;-76
2021/05/11 16:50:27;;;;;;;13.38;2.80;;;666.00;896.00;;;;;;5032678;28;20037;-76
2021/05/11 16:52:54;;;;;;;8.20;2.50;;;665.90;870.40;;;;;;5034689;28;20021;-77
2021/05/11 16:55:23;;;;;;;4.75;2.85;;;665.80;870.40;;;;;;5016767;28;20082;-76